sensor_id;sensor_type;location;lat;lon;timestamp;temperature;humidity
3550;DHT22;45572;48.804;8.330;2023-11-19T00:00:16;11.80;96.80
3550;DHT22;45572;48.804;8.330;2023-11-19T00:02:44;11.80;96.80
3550;DHT22;45572;48.804;8.330;2023-11-19T00:05:12;11.80;96.80
3550;DHT22;45572;48.804;8.330;2023-11-19T00:07:42;11.80;96.80
3550;DHT22;45572;48.804;8.330;2023-11-19T00:10:11;11.80;96.80
3550;DHT22;45572;48.804;8.330;2023-11-19T00:12:40;11.90;96.80
3550;DHT22;45572;48.804;8.330;2023-11-19T00:15:09;11.80;96.80
3550;DHT22;45572;48.804;8.330;2023-11-19T00:17:38;11.80;96.80
3550;DHT22;45572;48.804;8.330;2023-11-19T00:20:08;11.80;96.80
3550;DHT22;45572;48.804;8.330;2023-11-19T00:22:35;11.80;96.80
3550;DHT22;45572;48.804;8.330;2023-11-19T00:25:16;11.80;96.80
3550;DHT22;45572;48.804;8.330;2023-11-19T00:27:44;11.80;96.80
3550;DHT22;45572;48.804;8.330;2023-11-19T00:30:13;11.80;96.80
3550;DHT22;45572;48.804;8.330;2023-11-19T00:32:41;11.80;96.80
3550;DHT22;45572;48.804;8.330;2023-11-19T00:35:09;11.80;96.80
3550;DHT22;45572;48.804;8.330;2023-11-19T00:37:37;11.80;96.80
3550;DHT22;45572;48.804;8.330;2023-11-19T00:40:07;11.90;96.80
3550;DHT22;45572;48.804;8.330;2023-11-19T00:42:38;11.90;96.80
3550;DHT22;45572;48.804;8.330;2023-11-19T00:45:06;11.90;96.80
3550;DHT22;45572;48.804;8.330;2023-11-19T00:47:38;11.90;96.80
3550;DHT22;45572;48.804;8.330;2023-11-19T00:50:07;11.90;96.80
3550;DHT22;45572;48.804;8.330;2023-11-19T00:52:36;11.90;96.80
3550;DHT22;45572;48.804;8.330;2023-11-19T00:55:05;11.90;96.80
3550;DHT22;45572;48.804;8.330;2023-11-19T00:57:33;11.90;96.80
3550;DHT22;45572;48.804;8.330;2023-11-19T01:00:04;11.80;96.80
3550;DHT22;45572;48.804;8.330;2023-11-19T01:02:35;11.90;96.80
3550;DHT22;45572;48.804;8.330;2023-11-19T01:05:04;11.90;96.80
3550;DHT22;45572;48.804;8.330;2023-11-19T01:07:32;11.90;96.80
3550;DHT22;45572;48.804;8.330;2023-11-19T01:10:01;11.90;96.80
3550;DHT22;45572;48.804;8.330;2023-11-19T01:12:29;11.90;96.80
3550;DHT22;45572;48.804;8.330;2023-11-19T01:14:57;11.90;96.80
3550;DHT22;45572;48.804;8.330;2023-11-19T01:17:26;11.90;96.80
3550;DHT22;45572;48.804;8.330;2023-11-19T01:19:54;12.00;96.80
3550;DHT22;45572;48.804;8.330;2023-11-19T01:22:22;12.00;96.80
3550;DHT22;45572;48.804;8.330;2023-11-19T01:24:50;12.00;96.80
3550;DHT22;45572;48.804;8.330;2023-11-19T01:27:18;12.00;96.80
3550;DHT22;45572;48.804;8.330;2023-11-19T01:29:46;12.00;96.80
3550;DHT22;45572;48.804;8.330;2023-11-19T01:32:14;12.00;96.80
3550;DHT22;45572;48.804;8.330;2023-11-19T01:34:43;12.00;96.80
3550;DHT22;45572;48.804;8.330;2023-11-19T01:37:12;12.00;96.80
3550;DHT22;45572;48.804;8.330;2023-11-19T01:39:43;12.00;96.80
3550;DHT22;45572;48.804;8.330;2023-11-19T01:42:11;12.10;96.80
3550;DHT22;45572;48.804;8.330;2023-11-19T01:44:39;12.10;96.80
3550;DHT22;45572;48.804;8.330;2023-11-19T01:47:08;12.10;96.80
3550;DHT22;45572;48.804;8.330;2023-11-19T01:49:36;12.10;96.80
3550;DHT22;45572;48.804;8.330;2023-11-19T01:52:05;12.10;96.80
3550;DHT22;45572;48.804;8.330;2023-11-19T01:54:35;12.00;96.80
3550;DHT22;45572;48.804;8.330;2023-11-19T01:57:03;12.00;96.80
3550;DHT22;45572;48.804;8.330;2023-11-19T01:59:31;12.10;96.80
3550;DHT22;45572;48.804;8.330;2023-11-19T02:01:58;12.10;96.80
3550;DHT22;45572;48.804;8.330;2023-11-19T02:04:27;12.00;96.80
3550;DHT22;45572;48.804;8.330;2023-11-19T02:06:56;12.00;96.80
3550;DHT22;45572;48.804;8.330;2023-11-19T02:09:26;12.10;96.80
3550;DHT22;45572;48.804;8.330;2023-11-19T02:11:55;12.10;96.80
3550;DHT22;45572;48.804;8.330;2023-11-19T02:14:25;12.00;96.80
3550;DHT22;45572;48.804;8.330;2023-11-19T02:16:53;12.10;96.80
3550;DHT22;45572;48.804;8.330;2023-11-19T02:19:21;12.10;96.80
3550;DHT22;45572;48.804;8.330;2023-11-19T02:21:49;12.10;96.80
3550;DHT22;45572;48.804;8.330;2023-11-19T02:24:17;12.10;96.80
3550;DHT22;45572;48.804;8.330;2023-11-19T02:26:54;12.10;96.80
3550;DHT22;45572;48.804;8.330;2023-11-19T02:29:27;12.10;96.80
3550;DHT22;45572;48.804;8.330;2023-11-19T02:31:55;12.10;96.80
3550;DHT22;45572;48.804;8.330;2023-11-19T02:34:23;12.10;96.80
3550;DHT22;45572;48.804;8.330;2023-11-19T02:36:50;12.10;96.80
3550;DHT22;45572;48.804;8.330;2023-11-19T02:39:20;12.10;96.80
3550;DHT22;45572;48.804;8.330;2023-11-19T02:41:48;12.10;96.80
3550;DHT22;45572;48.804;8.330;2023-11-19T02:44:17;12.10;96.80
3550;DHT22;45572;48.804;8.330;2023-11-19T02:46:46;12.10;96.80
3550;DHT22;45572;48.804;8.330;2023-11-19T02:49:14;12.10;96.80
3550;DHT22;45572;48.804;8.330;2023-11-19T02:51:42;12.10;96.80
3550;DHT22;45572;48.804;8.330;2023-11-19T02:54:10;12.10;96.80
3550;DHT22;45572;48.804;8.330;2023-11-19T02:56:42;12.10;96.80
3550;DHT22;45572;48.804;8.330;2023-11-19T02:59:10;12.10;96.80
3550;DHT22;45572;48.804;8.330;2023-11-19T03:01:54;12.10;96.80
3550;DHT22;45572;48.804;8.330;2023-11-19T03:04:22;12.10;96.80
3550;DHT22;45572;48.804;8.330;2023-11-19T03:06:50;12.10;96.80
3550;DHT22;45572;48.804;8.330;2023-11-19T03:09:19;12.10;96.80
3550;DHT22;45572;48.804;8.330;2023-11-19T03:11:47;12.00;96.80
3550;DHT22;45572;48.804;8.330;2023-11-19T03:14:16;12.10;96.80
3550;DHT22;45572;48.804;8.330;2023-11-19T03:16:45;12.10;96.80
3550;DHT22;45572;48.804;8.330;2023-11-19T03:19:15;12.10;96.80
3550;DHT22;45572;48.804;8.330;2023-11-19T03:21:52;12.10;96.80
3550;DHT22;45572;48.804;8.330;2023-11-19T03:24:20;12.10;96.80
3550;DHT22;45572;48.804;8.330;2023-11-19T03:26:49;12.20;96.80
3550;DHT22;45572;48.804;8.330;2023-11-19T03:29:17;12.20;96.80
3550;DHT22;45572;48.804;8.330;2023-11-19T03:31:45;12.20;96.80
3550;DHT22;45572;48.804;8.330;2023-11-19T03:34:14;12.20;96.80
3550;DHT22;45572;48.804;8.330;2023-11-19T03:36:43;12.30;96.80
3550;DHT22;45572;48.804;8.330;2023-11-19T03:39:12;12.30;96.80
3550;DHT22;45572;48.804;8.330;2023-11-19T03:41:39;12.30;96.80
3550;DHT22;45572;48.804;8.330;2023-11-19T03:44:08;12.30;96.80
3550;DHT22;45572;48.804;8.330;2023-11-19T03:46:36;12.40;96.80
3550;DHT22;45572;48.804;8.330;2023-11-19T03:49:04;12.40;96.80
3550;DHT22;45572;48.804;8.330;2023-11-19T03:51:34;12.40;96.80
3550;DHT22;45572;48.804;8.330;2023-11-19T03:54:02;12.40;96.80
3550;DHT22;45572;48.804;8.330;2023-11-19T03:56:30;12.40;96.80
3550;DHT22;45572;48.804;8.330;2023-11-19T03:58:58;12.40;96.80
3550;DHT22;45572;48.804;8.330;2023-11-19T04:01:26;12.50;96.80
3550;DHT22;45572;48.804;8.330;2023-11-19T04:03:54;12.50;96.80
3550;DHT22;45572;48.804;8.330;2023-11-19T04:06:22;12.50;96.80
3550;DHT22;45572;48.804;8.330;2023-11-19T04:08:51;12.50;96.80
3550;DHT22;45572;48.804;8.330;2023-11-19T04:11:19;12.60;96.80
3550;DHT22;45572;48.804;8.330;2023-11-19T04:13:47;12.60;96.80
3550;DHT22;45572;48.804;8.330;2023-11-19T04:16:14;12.60;96.80
3550;DHT22;45572;48.804;8.330;2023-11-19T04:18:42;12.60;96.80
3550;DHT22;45572;48.804;8.330;2023-11-19T04:21:10;12.60;96.80
3550;DHT22;45572;48.804;8.330;2023-11-19T04:23:38;12.60;96.80
3550;DHT22;45572;48.804;8.330;2023-11-19T04:26:07;12.60;96.80
3550;DHT22;45572;48.804;8.330;2023-11-19T04:28:37;12.60;96.80
3550;DHT22;45572;48.804;8.330;2023-11-19T04:31:04;12.60;96.80
3550;DHT22;45572;48.804;8.330;2023-11-19T04:33:33;12.70;96.80
3550;DHT22;45572;48.804;8.330;2023-11-19T04:36:00;12.70;96.80
3550;DHT22;45572;48.804;8.330;2023-11-19T04:38:29;12.70;96.80
3550;DHT22;45572;48.804;8.330;2023-11-19T04:40:57;12.70;96.80
3550;DHT22;45572;48.804;8.330;2023-11-19T04:43:26;12.80;96.80
3550;DHT22;45572;48.804;8.330;2023-11-19T04:45:54;12.80;96.80
3550;DHT22;45572;48.804;8.330;2023-11-19T04:48:21;12.80;96.80
3550;DHT22;45572;48.804;8.330;2023-11-19T04:50:49;12.80;96.80
3550;DHT22;45572;48.804;8.330;2023-11-19T04:53:19;12.90;96.80
3550;DHT22;45572;48.804;8.330;2023-11-19T04:55:47;12.90;96.80
3550;DHT22;45572;48.804;8.330;2023-11-19T04:58:15;13.00;96.80
3550;DHT22;45572;48.804;8.330;2023-11-19T05:00:44;13.00;96.80
3550;DHT22;45572;48.804;8.330;2023-11-19T05:03:12;13.00;96.80
3550;DHT22;45572;48.804;8.330;2023-11-19T05:05:40;13.00;96.80
3550;DHT22;45572;48.804;8.330;2023-11-19T05:08:07;13.10;96.80
3550;DHT22;45572;48.804;8.330;2023-11-19T05:10:35;13.10;96.80
3550;DHT22;45572;48.804;8.330;2023-11-19T05:13:03;13.10;96.80
3550;DHT22;45572;48.804;8.330;2023-11-19T05:15:30;13.20;96.80
3550;DHT22;45572;48.804;8.330;2023-11-19T05:17:59;13.20;96.80
3550;DHT22;45572;48.804;8.330;2023-11-19T05:20:27;13.20;96.80
3550;DHT22;45572;48.804;8.330;2023-11-19T05:22:55;13.30;96.80
3550;DHT22;45572;48.804;8.330;2023-11-19T05:25:23;13.30;96.80
3550;DHT22;45572;48.804;8.330;2023-11-19T05:27:51;13.30;96.80
3550;DHT22;45572;48.804;8.330;2023-11-19T05:30:19;13.30;96.80
3550;DHT22;45572;48.804;8.330;2023-11-19T05:32:47;13.30;96.80
3550;DHT22;45572;48.804;8.330;2023-11-19T05:35:16;13.40;96.80
3550;DHT22;45572;48.804;8.330;2023-11-19T05:37:43;13.30;96.80
3550;DHT22;45572;48.804;8.330;2023-11-19T05:40:11;13.30;96.80
3550;DHT22;45572;48.804;8.330;2023-11-19T05:42:41;13.40;96.80
3550;DHT22;45572;48.804;8.330;2023-11-19T05:45:11;13.30;96.80
3550;DHT22;45572;48.804;8.330;2023-11-19T05:47:39;13.30;96.80
3550;DHT22;45572;48.804;8.330;2023-11-19T05:50:07;13.30;96.80
3550;DHT22;45572;48.804;8.330;2023-11-19T05:52:37;13.40;96.80
3550;DHT22;45572;48.804;8.330;2023-11-19T05:55:06;13.40;96.80
3550;DHT22;45572;48.804;8.330;2023-11-19T05:57:36;13.40;96.80
3550;DHT22;45572;48.804;8.330;2023-11-19T06:00:13;13.40;96.80
3550;DHT22;45572;48.804;8.330;2023-11-19T06:02:42;13.40;96.80
3550;DHT22;45572;48.804;8.330;2023-11-19T06:05:10;13.40;96.80
3550;DHT22;45572;48.804;8.330;2023-11-19T06:07:40;13.40;96.80
3550;DHT22;45572;48.804;8.330;2023-11-19T06:10:08;13.40;96.80
3550;DHT22;45572;48.804;8.330;2023-11-19T06:12:37;13.40;96.80
3550;DHT22;45572;48.804;8.330;2023-11-19T06:15:08;13.40;96.80
3550;DHT22;45572;48.804;8.330;2023-11-19T06:17:36;13.50;96.80
3550;DHT22;45572;48.804;8.330;2023-11-19T06:20:04;13.50;96.80
3550;DHT22;45572;48.804;8.330;2023-11-19T06:22:34;13.50;96.80
3550;DHT22;45572;48.804;8.330;2023-11-19T06:25:03;13.50;96.80
3550;DHT22;45572;48.804;8.330;2023-11-19T06:27:34;13.60;96.80
3550;DHT22;45572;48.804;8.330;2023-11-19T06:30:01;13.60;96.80
3550;DHT22;45572;48.804;8.330;2023-11-19T06:32:29;13.60;96.80
3550;DHT22;45572;48.804;8.330;2023-11-19T06:34:57;13.60;96.70
3550;DHT22;45572;48.804;8.330;2023-11-19T06:37:25;13.70;96.40
3550;DHT22;45572;48.804;8.330;2023-11-19T06:39:53;13.70;96.60
3550;DHT22;45572;48.804;8.330;2023-11-19T06:42:28;13.70;96.20
3550;DHT22;45572;48.804;8.330;2023-11-19T06:44:56;13.70;96.10
3550;DHT22;45572;48.804;8.330;2023-11-19T06:47:25;13.80;96.00
3550;DHT22;45572;48.804;8.330;2023-11-19T06:49:54;13.80;95.50
3550;DHT22;45572;48.804;8.330;2023-11-19T06:52:22;13.90;95.40
3550;DHT22;45572;48.804;8.330;2023-11-19T06:54:50;13.90;95.20
3550;DHT22;45572;48.804;8.330;2023-11-19T06:57:17;13.90;95.00
3550;DHT22;45572;48.804;8.330;2023-11-19T06:59:48;14.10;94.40
3550;DHT22;45572;48.804;8.330;2023-11-19T07:02:16;14.10;94.60
3550;DHT22;45572;48.804;8.330;2023-11-19T07:04:43;14.00;94.70
3550;DHT22;45572;48.804;8.330;2023-11-19T07:07:14;14.10;94.80
3550;DHT22;45572;48.804;8.330;2023-11-19T07:09:42;14.20;94.00
3550;DHT22;45572;48.804;8.330;2023-11-19T07:12:10;14.20;93.80
3550;DHT22;45572;48.804;8.330;2023-11-19T07:14:40;14.30;93.80
3550;DHT22;45572;48.804;8.330;2023-11-19T07:17:09;14.30;93.80
3550;DHT22;45572;48.804;8.330;2023-11-19T07:19:37;14.30;93.80
3550;DHT22;45572;48.804;8.330;2023-11-19T07:22:06;14.30;93.40
3550;DHT22;45572;48.804;8.330;2023-11-19T07:24:34;14.30;93.30
3550;DHT22;45572;48.804;8.330;2023-11-19T07:27:02;14.40;93.60
3550;DHT22;45572;48.804;8.330;2023-11-19T07:29:30;14.30;93.30
3550;DHT22;45572;48.804;8.330;2023-11-19T07:31:59;14.40;92.50
3550;DHT22;45572;48.804;8.330;2023-11-19T07:34:29;14.50;92.30
3550;DHT22;45572;48.804;8.330;2023-11-19T07:36:57;14.50;92.00
3550;DHT22;45572;48.804;8.330;2023-11-19T07:39:28;14.60;92.30
3550;DHT22;45572;48.804;8.330;2023-11-19T07:41:56;14.50;92.70
3550;DHT22;45572;48.804;8.330;2023-11-19T07:44:24;14.40;93.30
3550;DHT22;45572;48.804;8.330;2023-11-19T07:46:52;14.30;93.80
3550;DHT22;45572;48.804;8.330;2023-11-19T07:49:20;14.20;94.40
3550;DHT22;45572;48.804;8.330;2023-11-19T07:51:49;14.10;94.60
3550;DHT22;45572;48.804;8.330;2023-11-19T07:54:18;14.10;94.90
3550;DHT22;45572;48.804;8.330;2023-11-19T07:56:48;14.00;95.50
3550;DHT22;45572;48.804;8.330;2023-11-19T07:59:16;13.90;95.50
3550;DHT22;45572;48.804;8.330;2023-11-19T08:01:44;13.90;95.50
3550;DHT22;45572;48.804;8.330;2023-11-19T08:04:12;13.80;96.00
3550;DHT22;45572;48.804;8.330;2023-11-19T08:06:43;13.90;94.90
3550;DHT22;45572;48.804;8.330;2023-11-19T08:09:13;13.90;94.80
3550;DHT22;45572;48.804;8.330;2023-11-19T08:11:41;14.00;94.40
3550;DHT22;45572;48.804;8.330;2023-11-19T08:14:09;14.10;94.60
3550;DHT22;45572;48.804;8.330;2023-11-19T08:16:38;14.10;94.80
3550;DHT22;45572;48.804;8.330;2023-11-19T08:19:06;14.20;94.70
3550;DHT22;45572;48.804;8.330;2023-11-19T08:21:35;14.20;94.70
3550;DHT22;45572;48.804;8.330;2023-11-19T08:24:03;14.20;94.40
3550;DHT22;45572;48.804;8.330;2023-11-19T08:26:32;14.30;94.10
3550;DHT22;45572;48.804;8.330;2023-11-19T08:29:00;14.30;94.20
3550;DHT22;45572;48.804;8.330;2023-11-19T08:31:28;14.40;93.90
3550;DHT22;45572;48.804;8.330;2023-11-19T08:33:58;14.40;93.50
3550;DHT22;45572;48.804;8.330;2023-11-19T08:36:26;14.50;93.50
3550;DHT22;45572;48.804;8.330;2023-11-19T08:38:54;14.50;94.10
3550;DHT22;45572;48.804;8.330;2023-11-19T08:41:22;14.40;94.50
3550;DHT22;45572;48.804;8.330;2023-11-19T08:43:51;14.30;95.30
3550;DHT22;45572;48.804;8.330;2023-11-19T08:46:19;14.10;96.50
3550;DHT22;45572;48.804;8.330;2023-11-19T08:48:47;14.00;96.80
3550;DHT22;45572;48.804;8.330;2023-11-19T08:51:15;14.00;96.80
3550;DHT22;45572;48.804;8.330;2023-11-19T08:53:42;14.00;96.80
3550;DHT22;45572;48.804;8.330;2023-11-19T08:56:13;14.00;96.80
3550;DHT22;45572;48.804;8.330;2023-11-19T08:58:44;13.90;96.80
3550;DHT22;45572;48.804;8.330;2023-11-19T09:01:13;13.90;96.80
3550;DHT22;45572;48.804;8.330;2023-11-19T09:03:40;13.90;96.80
3550;DHT22;45572;48.804;8.330;2023-11-19T09:06:08;14.00;96.40
3550;DHT22;45572;48.804;8.330;2023-11-19T09:08:36;14.10;95.90
3550;DHT22;45572;48.804;8.330;2023-11-19T09:11:07;14.10;95.90
3550;DHT22;45572;48.804;8.330;2023-11-19T09:13:35;14.10;95.80
3550;DHT22;45572;48.804;8.330;2023-11-19T09:16:03;14.20;95.60
3550;DHT22;45572;48.804;8.330;2023-11-19T09:18:33;14.20;95.40
3550;DHT22;45572;48.804;8.330;2023-11-19T09:21:00;14.30;95.80
3550;DHT22;45572;48.804;8.330;2023-11-19T09:23:29;14.30;95.20
3550;DHT22;45572;48.804;8.330;2023-11-19T09:25:59;14.30;95.10
3550;DHT22;45572;48.804;8.330;2023-11-19T09:28:27;14.50;94.10
3550;DHT22;45572;48.804;8.330;2023-11-19T09:30:55;14.60;94.20
3550;DHT22;45572;48.804;8.330;2023-11-19T09:33:22;14.60;93.70
3550;DHT22;45572;48.804;8.330;2023-11-19T09:35:52;14.70;93.80
3550;DHT22;45572;48.804;8.330;2023-11-19T09:38:20;14.60;93.50
3550;DHT22;45572;48.804;8.330;2023-11-19T09:40:48;14.70;93.30
3550;DHT22;45572;48.804;8.330;2023-11-19T09:43:15;14.70;92.90
3550;DHT22;45572;48.804;8.330;2023-11-19T09:45:48;14.70;92.80
3550;DHT22;45572;48.804;8.330;2023-11-19T09:48:18;14.70;93.10
3550;DHT22;45572;48.804;8.330;2023-11-19T09:50:47;14.90;93.10
3550;DHT22;45572;48.804;8.330;2023-11-19T09:53:16;15.30;92.50
3550;DHT22;45572;48.804;8.330;2023-11-19T09:55:44;15.60;92.00
3550;DHT22;45572;48.804;8.330;2023-11-19T09:58:14;16.10;89.80
3550;DHT22;45572;48.804;8.330;2023-11-19T10:00:45;16.80;88.50
3550;DHT22;45572;48.804;8.330;2023-11-19T10:03:25;16.90;87.90
3550;DHT22;45572;48.804;8.330;2023-11-19T10:05:55;17.10;87.40
3550;DHT22;45572;48.804;8.330;2023-11-19T10:08:24;17.00;86.10
3550;DHT22;45572;48.804;8.330;2023-11-19T10:10:52;16.90;86.90
3550;DHT22;45572;48.804;8.330;2023-11-19T10:13:26;17.40;86.90
3550;DHT22;45572;48.804;8.330;2023-11-19T10:15:56;17.60;84.90
3550;DHT22;45572;48.804;8.330;2023-11-19T10:18:25;17.20;85.00
3550;DHT22;45572;48.804;8.330;2023-11-19T10:20:53;17.40;85.60
3550;DHT22;45572;48.804;8.330;2023-11-19T10:23:23;17.30;85.50
3550;DHT22;45572;48.804;8.330;2023-11-19T10:25:53;17.00;85.30
3550;DHT22;45572;48.804;8.330;2023-11-19T10:28:21;16.70;86.40
3550;DHT22;45572;48.804;8.330;2023-11-19T10:30:48;16.70;86.30
3550;DHT22;45572;48.804;8.330;2023-11-19T10:33:16;16.70;86.70
3550;DHT22;45572;48.804;8.330;2023-11-19T10:35:55;16.60;86.10
3550;DHT22;45572;48.804;8.330;2023-11-19T10:38:27;16.60;86.50
3550;DHT22;45572;48.804;8.330;2023-11-19T10:40:57;16.50;87.10
3550;DHT22;45572;48.804;8.330;2023-11-19T10:43:25;16.60;86.70
3550;DHT22;45572;48.804;8.330;2023-11-19T10:45:54;16.70;86.00
3550;DHT22;45572;48.804;8.330;2023-11-19T10:48:36;16.50;85.90
3550;DHT22;45572;48.804;8.330;2023-11-19T10:51:05;16.40;86.20
3550;DHT22;45572;48.804;8.330;2023-11-19T10:53:37;16.30;86.70
3550;DHT22;45572;48.804;8.330;2023-11-19T10:56:10;16.20;86.50
3550;DHT22;45572;48.804;8.330;2023-11-19T10:58:44;16.30;86.00
3550;DHT22;45572;48.804;8.330;2023-11-19T11:01:16;16.10;85.90
3550;DHT22;45572;48.804;8.330;2023-11-19T11:03:46;16.00;86.30
3550;DHT22;45572;48.804;8.330;2023-11-19T11:06:16;16.00;86.40
3550;DHT22;45572;48.804;8.330;2023-11-19T11:08:46;16.10;88.00
3550;DHT22;45572;48.804;8.330;2023-11-19T11:11:15;16.30;87.10
3550;DHT22;45572;48.804;8.330;2023-11-19T11:13:44;16.50;86.50
3550;DHT22;45572;48.804;8.330;2023-11-19T11:16:14;17.20;85.90
3550;DHT22;45572;48.804;8.330;2023-11-19T11:18:44;17.60;82.70
3550;DHT22;45572;48.804;8.330;2023-11-19T11:21:15;17.40;82.50
3550;DHT22;45572;48.804;8.330;2023-11-19T11:24:01;17.20;83.30
3550;DHT22;45572;48.804;8.330;2023-11-19T11:26:50;16.90;83.70
3550;DHT22;45572;48.804;8.330;2023-11-19T11:29:26;16.60;84.60
3550;DHT22;45572;48.804;8.330;2023-11-19T11:32:04;16.60;85.40
3550;DHT22;45572;48.804;8.330;2023-11-19T11:34:55;16.80;84.60
3550;DHT22;45572;48.804;8.330;2023-11-19T11:37:32;16.90;84.10
3550;DHT22;45572;48.804;8.330;2023-11-19T11:40:03;17.10;84.00
3550;DHT22;45572;48.804;8.330;2023-11-19T11:42:37;17.30;83.00
3550;DHT22;45572;48.804;8.330;2023-11-19T11:45:06;17.30;82.70
3550;DHT22;45572;48.804;8.330;2023-11-19T11:50:35;17.20;81.50
3550;DHT22;45572;48.804;8.330;2023-11-19T11:53:13;17.10;79.80
3550;DHT22;45572;48.804;8.330;2023-11-19T11:55:54;17.00;80.00
3550;DHT22;45572;48.804;8.330;2023-11-19T11:58:26;16.80;80.90
3550;DHT22;45572;48.804;8.330;2023-11-19T12:03:50;16.70;81.50
3550;DHT22;45572;48.804;8.330;2023-11-19T12:06:21;16.60;82.60
3550;DHT22;45572;48.804;8.330;2023-11-19T12:08:48;16.50;83.40
3550;DHT22;45572;48.804;8.330;2023-11-19T12:17:46;16.90;83.20
3550;DHT22;45572;48.804;8.330;2023-11-19T12:20:16;16.90;82.80
3550;DHT22;45572;48.804;8.330;2023-11-19T12:23:04;17.00;83.70
3550;DHT22;45572;48.804;8.330;2023-11-19T12:25:34;17.00;83.00
3550;DHT22;45572;48.804;8.330;2023-11-19T12:28:02;16.80;82.20
3550;DHT22;45572;48.804;8.330;2023-11-19T12:30:31;17.00;83.10
3550;DHT22;45572;48.804;8.330;2023-11-19T12:33:07;17.00;82.80
3550;DHT22;45572;48.804;8.330;2023-11-19T12:35:39;17.20;83.30
3550;DHT22;45572;48.804;8.330;2023-11-19T12:38:06;17.20;82.40
3550;DHT22;45572;48.804;8.330;2023-11-19T12:40:34;17.20;81.90
3550;DHT22;45572;48.804;8.330;2023-11-19T12:43:02;17.00;81.80
3550;DHT22;45572;48.804;8.330;2023-11-19T12:45:34;16.90;82.00
3550;DHT22;45572;48.804;8.330;2023-11-19T12:48:06;16.70;82.70
3550;DHT22;45572;48.804;8.330;2023-11-19T12:50:50;16.70;83.10
3550;DHT22;45572;48.804;8.330;2023-11-19T12:53:18;16.60;83.60
3550;DHT22;45572;48.804;8.330;2023-11-19T12:55:45;16.50;83.90
3550;DHT22;45572;48.804;8.330;2023-11-19T12:58:29;16.40;84.80
3550;DHT22;45572;48.804;8.330;2023-11-19T13:01:01;16.50;84.40
3550;DHT22;45572;48.804;8.330;2023-11-19T13:03:31;16.70;85.00
3550;DHT22;45572;48.804;8.330;2023-11-19T13:06:03;16.80;83.60
3550;DHT22;45572;48.804;8.330;2023-11-19T13:08:39;16.90;84.10
3550;DHT22;45572;48.804;8.330;2023-11-19T13:11:08;17.00;83.80
3550;DHT22;45572;48.804;8.330;2023-11-19T13:13:54;17.00;83.60
3550;DHT22;45572;48.804;8.330;2023-11-19T13:16:22;16.90;81.00
3550;DHT22;45572;48.804;8.330;2023-11-19T13:18:51;16.80;79.40
3550;DHT22;45572;48.804;8.330;2023-11-19T13:21:19;16.70;80.70
3550;DHT22;45572;48.804;8.330;2023-11-19T13:23:47;16.50;81.30
3550;DHT22;45572;48.804;8.330;2023-11-19T13:26:15;16.50;82.60
3550;DHT22;45572;48.804;8.330;2023-11-19T13:28:43;16.40;83.30
3550;DHT22;45572;48.804;8.330;2023-11-19T13:31:10;16.30;84.60
3550;DHT22;45572;48.804;8.330;2023-11-19T13:33:42;16.30;84.90
3550;DHT22;45572;48.804;8.330;2023-11-19T13:36:11;16.30;84.90
3550;DHT22;45572;48.804;8.330;2023-11-19T13:38:43;16.40;83.50
3550;DHT22;45572;48.804;8.330;2023-11-19T13:41:12;16.60;83.20
3550;DHT22;45572;48.804;8.330;2023-11-19T13:43:40;16.70;81.90
3550;DHT22;45572;48.804;8.330;2023-11-19T13:46:08;16.80;82.20
3550;DHT22;45572;48.804;8.330;2023-11-19T13:48:36;16.80;82.10
3550;DHT22;45572;48.804;8.330;2023-11-19T13:51:04;16.70;82.70
3550;DHT22;45572;48.804;8.330;2023-11-19T13:53:34;16.50;82.80
3550;DHT22;45572;48.804;8.330;2023-11-19T13:56:05;16.30;84.10
3550;DHT22;45572;48.804;8.330;2023-11-19T13:58:33;16.10;84.80
3550;DHT22;45572;48.804;8.330;2023-11-19T14:01:01;16.00;84.70
3550;DHT22;45572;48.804;8.330;2023-11-19T14:03:29;15.90;84.70
3550;DHT22;45572;48.804;8.330;2023-11-19T14:05:57;15.80;85.30
3550;DHT22;45572;48.804;8.330;2023-11-19T14:08:24;15.70;85.90
3550;DHT22;45572;48.804;8.330;2023-11-19T14:10:53;15.60;85.80
3550;DHT22;45572;48.804;8.330;2023-11-19T14:13:23;15.60;86.20
3550;DHT22;45572;48.804;8.330;2023-11-19T14:15:51;15.60;85.70
3550;DHT22;45572;48.804;8.330;2023-11-19T14:18:19;15.60;85.90
3550;DHT22;45572;48.804;8.330;2023-11-19T14:20:46;15.60;85.90
3550;DHT22;45572;48.804;8.330;2023-11-19T14:23:14;15.60;85.80
3550;DHT22;45572;48.804;8.330;2023-11-19T14:25:43;15.50;86.10
3550;DHT22;45572;48.804;8.330;2023-11-19T14:28:12;15.50;86.50
3550;DHT22;45572;48.804;8.330;2023-11-19T14:30:40;15.60;86.00
3550;DHT22;45572;48.804;8.330;2023-11-19T14:33:08;15.60;85.30
3550;DHT22;45572;48.804;8.330;2023-11-19T14:35:36;15.50;85.20
3550;DHT22;45572;48.804;8.330;2023-11-19T14:38:03;15.50;84.10
3550;DHT22;45572;48.804;8.330;2023-11-19T14:40:33;15.60;84.30
3550;DHT22;45572;48.804;8.330;2023-11-19T14:43:04;15.60;83.90
3550;DHT22;45572;48.804;8.330;2023-11-19T14:45:34;15.60;83.90
3550;DHT22;45572;48.804;8.330;2023-11-19T14:48:13;15.60;83.90
3550;DHT22;45572;48.804;8.330;2023-11-19T14:50:41;15.50;84.20
3550;DHT22;45572;48.804;8.330;2023-11-19T14:53:08;15.50;84.50
3550;DHT22;45572;48.804;8.330;2023-11-19T14:55:36;15.50;84.50
3550;DHT22;45572;48.804;8.330;2023-11-19T14:58:04;15.50;84.60
3550;DHT22;45572;48.804;8.330;2023-11-19T15:00:38;15.40;83.60
3550;DHT22;45572;48.804;8.330;2023-11-19T15:03:06;15.40;82.20
3550;DHT22;45572;48.804;8.330;2023-11-19T15:05:35;15.30;82.10
3550;DHT22;45572;48.804;8.330;2023-11-19T15:08:03;15.30;81.60
3550;DHT22;45572;48.804;8.330;2023-11-19T15:10:31;15.40;80.50
3550;DHT22;45572;48.804;8.330;2023-11-19T15:12:58;15.40;80.80
3550;DHT22;45572;48.804;8.330;2023-11-19T15:15:26;15.50;79.90
3550;DHT22;45572;48.804;8.330;2023-11-19T15:17:58;15.50;80.60
3550;DHT22;45572;48.804;8.330;2023-11-19T15:20:26;15.40;81.30
3550;DHT22;45572;48.804;8.330;2023-11-19T15:22:56;15.30;81.80
3550;DHT22;45572;48.804;8.330;2023-11-19T15:25:24;15.30;81.60
3550;DHT22;45572;48.804;8.330;2023-11-19T15:27:52;15.30;81.90
3550;DHT22;45572;48.804;8.330;2023-11-19T15:30:19;15.20;82.30
3550;DHT22;45572;48.804;8.330;2023-11-19T15:32:47;15.20;82.90
3550;DHT22;45572;48.804;8.330;2023-11-19T15:35:16;15.20;81.70
3550;DHT22;45572;48.804;8.330;2023-11-19T15:37:44;15.10;81.20
3550;DHT22;45572;48.804;8.330;2023-11-19T15:40:13;15.10;81.00
3550;DHT22;45572;48.804;8.330;2023-11-19T15:42:40;15.10;81.50
3550;DHT22;45572;48.804;8.330;2023-11-19T15:45:09;15.00;81.30
3550;DHT22;45572;48.804;8.330;2023-11-19T15:47:38;15.00;81.50
3550;DHT22;45572;48.804;8.330;2023-11-19T15:50:07;15.00;81.40
3550;DHT22;45572;48.804;8.330;2023-11-19T15:52:38;15.00;81.00
3550;DHT22;45572;48.804;8.330;2023-11-19T15:55:06;15.00;81.20
3550;DHT22;45572;48.804;8.330;2023-11-19T15:57:34;15.10;81.10
3550;DHT22;45572;48.804;8.330;2023-11-19T16:04:34;15.10;80.70
3550;DHT22;45572;48.804;8.330;2023-11-19T16:07:02;15.00;81.30
3550;DHT22;45572;48.804;8.330;2023-11-19T16:09:33;15.00;81.30
3550;DHT22;45572;48.804;8.330;2023-11-19T16:12:00;15.00;81.30
3550;DHT22;45572;48.804;8.330;2023-11-19T16:14:28;15.10;81.30